OOCL Hamburg — VRZK9 — position and weather

sailwx.info

Track history (hours):
 
Tides and Currents Weather Stations Pressure Air Temp Water Temp Dewpoint Dewpoint Depression Visibility Wind Speed Wind Dir Waves Ship Positions

OOCL Hamburg

Last reported at 2016-Dec-08 12:00 UTC. Time now 2016-Dec-09 05:52 UTC.
Position N 36°54' W 071°18'.

Length 323 m; beam 42.8 m; draft 14.5 m.

Type: Cargo ship. MMSI: 477702000.

Wind from 300 at 13 knots

Barometer 1015.0 mb
Air temperature 15.0 ° C
Visibility: greater than 10.8 NM
Dewpoint 11.3 ° C
Water temperature 24.0 ° C

Date/timePositionNaut miles runAvg speedWind from/ knotsBaromVisibWave heightAir tempDewpointWater temp
2016-Dec-08 12:00N 36°54' W 071°18'115 9.6 300 / 131015.010.8 15.011.324.0
2016-Dec-08 00:00N 36°48' W 073°42'101 8.8 330 / 141017.010.8 14.012.224.6
2016-Dec-07 12:33N 36°49' W 075°48'9 9.0
2016-Dec-07 11:33N 36°55' W 075°57'1312.8
2016-Dec-07 10:33N 36°60' W 076°12'8 8.2
2016-Dec-07 09:33N 36°55' W 076°20'0 0.1
2016-Dec-07 08:32N 36°55' W 076°20'0 0.0
2016-Dec-07 07:32N 36°55' W 076°20'0 0.0
2016-Dec-07 06:32N 36°55' W 076°20'0 0.0
2016-Dec-07 05:32N 36°55' W 076°20'0 0.0
2016-Dec-07 04:32N 36°55' W 076°20'0 0.0
2016-Dec-07 03:32N 36°55' W 076°20'0 0.0
2016-Dec-07 02:32N 36°55' W 076°20'0 0.0
2016-Dec-07 01:29N 36°55' W 076°20'0 0.0
2016-Dec-07 00:32N 36°55' W 076°20'0 0.0
2016-Dec-06 23:32N 36°55' W 076°20'0 0.0
2016-Dec-06 22:32N 36°55' W 076°20'0 0.0
2016-Dec-06 21:29N 36°55' W 076°20'0 0.0
2016-Dec-06 20:32N 36°55' W 076°20'0 0.0
2016-Dec-06 18:32N 36°55' W 076°20'0 0.0
2016-Dec-06 17:29N 36°55' W 076°20'0 0.0
2016-Dec-06 16:32N 36°55' W 076°20'0 0.0
2016-Dec-06 15:32N 36°55' W 076°20'0 0.0
2016-Dec-06 14:32N 36°55' W 076°20'0 0.0
2016-Dec-06 12:23N 36°55' W 076°20'0 0.0
2016-Dec-06 11:32N 36°55' W 076°20'1 0.8
2016-Dec-06 10:33N 36°55' W 076°20'9 8.8
2016-Dec-06 09:33N 36°59' W 076°11'1312.9
2016-Dec-06 08:33N 36°56' W 075°55'8 7.2
2016-Dec-06 07:29N 36°51' W 075°48'9513.7
2016-Dec-06 00:30N 35°21' W 075°10'327 6.5
2016-Dec-03 22:07N 32°02' W 080°23'5 7.2
2016-Dec-03 21:29N 32°01' W 080°28'7 7.6
2016-Dec-03 20:33N 31°58' W 080°36'7 7.5
2016-Dec-03 19:33N 31°58' W 080°44'1211.6
2016-Dec-03 18:33N 32°04' W 080°57'8 8.0
2016-Dec-03 17:33N 32°05' W 081°06'4 3.3
2016-Dec-03 16:28N 32°08' W 081°09'0 0.0
2016-Dec-03 15:22N 32°08' W 081°09'0 0.0
2016-Dec-03 14:22N 32°08' W 081°09'0 0.0
2016-Dec-03 13:22N 32°08' W 081°09'0 0.0
2016-Dec-03 11:28N 32°08' W 081°09'0 0.0
2016-Dec-03 10:22N 32°08' W 081°09'0 0.0
2016-Dec-03 09:22N 32°08' W 081°09'0 0.0
2016-Dec-03 08:28N 32°08' W 081°09'0 0.0
2016-Dec-03 07:28N 32°08' W 081°09'0 0.0
2016-Dec-03 06:28N 32°08' W 081°09'0 0.0
2016-Dec-03 05:28N 32°08' W 081°09'0 0.0
2016-Dec-03 04:28N 32°08' W 081°09'0 0.0
2016-Dec-03 03:28N 32°08' W 081°09'0 0.0
2016-Dec-03 02:10N 32°08' W 081°09'0 0.0
2016-Dec-03 01:28N 32°08' W 081°09'0 0.0
2016-Dec-03 00:28N 32°08' W 081°09'0 0.0
2016-Dec-02 23:22N 32°08' W 081°09'0 0.2
2016-Dec-02 22:33N 32°08' W 081°08'4 4.2
2016-Dec-02 21:33N 32°05' W 081°05'7 6.9
2016-Dec-02 20:33N 32°04' W 080°57'1010.2
2016-Dec-02 19:33N 31°59' W 080°46'1110.6
2016-Dec-02 18:34N 31°57' W 080°34'10 9.8
2016-Dec-02 17:34N 31°58' W 080°23'10 9.8
2016-Dec-02 16:32N 31°60' W 080°11'23117.3
2016-Dec-02 03:12N 34°11' W 076°24'1319.9
2016-Dec-02 02:34N 34°19' W 076°12'2019.9
2016-Dec-02 01:33N 34°32' W 075°54'29619.7
2016-Dec-01 10:32N 39°13' W 073°58'1919.9
2016-Dec-01 09:33N 39°32' W 073°54'1919.3
2016-Dec-01 08:33N 39°51' W 073°51'2115.1
2016-Dec-01 07:10N 40°12' W 073°50'6 9.5
2016-Dec-01 06:33N 40°18' W 073°49'9 8.8
2016-Dec-01 05:33N 40°27' W 073°48'10 9.9
2016-Dec-01 04:33N 40°31' W 073°60'9 8.9
2016-Dec-01 03:34N 40°40' W 074°03'1 0.7
2016-Dec-01 01:33N 40°40' W 074°05'0 0.0
2016-Dec-01 00:33N 40°40' W 074°05'0 0.0
2016-Nov-30 23:33N 40°40' W 074°05'0 0.0
2016-Nov-30 22:33N 40°40' W 074°05'0 0.0
2016-Nov-30 21:33N 40°40' W 074°05'0 0.0
2016-Nov-30 20:33N 40°40' W 074°05'0 0.0
2016-Nov-30 19:33N 40°40' W 074°05'0 0.0
2016-Nov-30 18:33N 40°40' W 074°05'0 0.0
2016-Nov-30 17:33N 40°40' W 074°05'0 0.0
2016-Nov-30 16:33N 40°40' W 074°05'0 0.0
2016-Nov-30 15:33N 40°40' W 074°05'0 0.0
2016-Nov-30 14:33N 40°40' W 074°05'0 0.0
2016-Nov-30 13:33N 40°40' W 074°05'0 0.0
2016-Nov-30 12:33N 40°40' W 074°05'0 0.0
2016-Nov-30 11:33N 40°40' W 074°05'0 0.0
2016-Nov-30 10:33N 40°40' W 074°05'0 0.0
2016-Nov-30 09:31N 40°40' W 074°05'0 0.0
2016-Nov-30 08:31N 40°40' W 074°05'0 0.0
2016-Nov-30 07:31N 40°40' W 074°05'0 0.0
2016-Nov-30 06:31N 40°40' W 074°05'0 0.0
2016-Nov-30 05:31N 40°40' W 074°05'0 0.0
2016-Nov-30 04:31N 40°40' W 074°05'0 0.0
2016-Nov-30 03:31N 40°40' W 074°05'0 0.0
2016-Nov-30 02:31N 40°40' W 074°05'0 0.0
2016-Nov-30 01:31N 40°40' W 074°05'0 0.0
2016-Nov-30 00:31N 40°40' W 074°05'0 0.0
2016-Nov-29 23:31N 40°40' W 074°05'0 0.0
2016-Nov-29 22:31N 40°40' W 074°05'0 0.0
2016-Nov-29 21:31N 40°40' W 074°05'0 0.0
2016-Nov-29 20:31N 40°40' W 074°05'0 0.0
2016-Nov-29 19:31N 40°40' W 074°05'0 0.0
2016-Nov-29 18:31N 40°40' W 074°05'0 0.0
2016-Nov-29 17:31N 40°40' W 074°05'0 0.0
2016-Nov-29 16:31N 40°40' W 074°05'0 0.0
2016-Nov-29 15:31N 40°40' W 074°05'0 0.0
2016-Nov-29 14:31N 40°40' W 074°05'0 0.0
2016-Nov-29 13:31N 40°40' W 074°05'0 0.0
2016-Nov-29 12:31N 40°40' W 074°05'0 0.0
2016-Nov-29 11:31N 40°40' W 074°05'4 3.7
2016-Nov-29 10:33N 40°37' W 074°03'1211.5
2016-Nov-29 09:33N 40°28' W 073°53'9 8.9
2016-Nov-29 08:33N 40°27' W 073°41'9 8.4
2016-Nov-29 07:32N 40°28' W 073°30'11 9.8
2016-Nov-29 06:23N 40°29' W 073°15'20 9.9
2016-Nov-29 04:25N 40°30' W 072°49'9 9.9
2016-Nov-29 03:30N 40°30' W 072°37'  
Track history (hours):
 
Tides and Currents Weather Stations Pressure Air Temp Water Temp Dewpoint Dewpoint Depression Visibility Wind Speed Wind Dir Waves Ship Positions

OOCL Hamburg

Last reported at 2016-Dec-08 12:00 UTC. Time now 2016-Dec-09 05:52 UTC.
Position N 36°54' W 071°18'.

Length 323 m; beam 42.8 m; draft 14.5 m.

Type: Cargo ship. MMSI: 477702000.

Wind from 300 at 13 knots

Barometer 1015.0 mb
Air temperature 15.0 ° C
Visibility: greater than 10.8 NM
Dewpoint 11.3 ° C
Water temperature 24.0 ° C

Date/timePositionNaut miles runAvg speedWind from/ knotsBaromVisibWave heightAir tempDewpointWater temp
2016-Dec-08 12:00N 36°54' W 071°18'115 9.6 300 / 131015.010.8 15.011.324.0
2016-Dec-08 00:00N 36°48' W 073°42'101 8.8 330 / 141017.010.8 14.012.224.6
2016-Dec-07 12:33N 36°49' W 075°48'9 9.0
2016-Dec-07 11:33N 36°55' W 075°57'1312.8
2016-Dec-07 10:33N 36°60' W 076°12'8 8.2
2016-Dec-07 09:33N 36°55' W 076°20'0 0.1
2016-Dec-07 08:32N 36°55' W 076°20'0 0.0
2016-Dec-07 07:32N 36°55' W 076°20'0 0.0
2016-Dec-07 06:32N 36°55' W 076°20'0 0.0
2016-Dec-07 05:32N 36°55' W 076°20'0 0.0
2016-Dec-07 04:32N 36°55' W 076°20'0 0.0
2016-Dec-07 03:32N 36°55' W 076°20'0 0.0
2016-Dec-07 02:32N 36°55' W 076°20'0 0.0
2016-Dec-07 01:29N 36°55' W 076°20'0 0.0
2016-Dec-07 00:32N 36°55' W 076°20'0 0.0
2016-Dec-06 23:32N 36°55' W 076°20'0 0.0
2016-Dec-06 22:32N 36°55' W 076°20'0 0.0
2016-Dec-06 21:29N 36°55' W 076°20'0 0.0
2016-Dec-06 20:32N 36°55' W 076°20'0 0.0
2016-Dec-06 18:32N 36°55' W 076°20'0 0.0
2016-Dec-06 17:29N 36°55' W 076°20'0 0.0
2016-Dec-06 16:32N 36°55' W 076°20'0 0.0
2016-Dec-06 15:32N 36°55' W 076°20'0 0.0
2016-Dec-06 14:32N 36°55' W 076°20'0 0.0
2016-Dec-06 12:23N 36°55' W 076°20'0 0.0
2016-Dec-06 11:32N 36°55' W 076°20'1 0.8
2016-Dec-06 10:33N 36°55' W 076°20'9 8.8
2016-Dec-06 09:33N 36°59' W 076°11'1312.9
2016-Dec-06 08:33N 36°56' W 075°55'8 7.2
2016-Dec-06 07:29N 36°51' W 075°48'9513.7
2016-Dec-06 00:30N 35°21' W 075°10'327 6.5
2016-Dec-03 22:07N 32°02' W 080°23'5 7.2
2016-Dec-03 21:29N 32°01' W 080°28'7 7.6
2016-Dec-03 20:33N 31°58' W 080°36'7 7.5
2016-Dec-03 19:33N 31°58' W 080°44'1211.6
2016-Dec-03 18:33N 32°04' W 080°57'8 8.0
2016-Dec-03 17:33N 32°05' W 081°06'4 3.3
2016-Dec-03 16:28N 32°08' W 081°09'0 0.0
2016-Dec-03 15:22N 32°08' W 081°09'0 0.0
2016-Dec-03 14:22N 32°08' W 081°09'0 0.0
2016-Dec-03 13:22N 32°08' W 081°09'0 0.0
2016-Dec-03 11:28N 32°08' W 081°09'0 0.0
2016-Dec-03 10:22N 32°08' W 081°09'0 0.0
2016-Dec-03 09:22N 32°08' W 081°09'0 0.0
2016-Dec-03 08:28N 32°08' W 081°09'0 0.0
2016-Dec-03 07:28N 32°08' W 081°09'0 0.0
2016-Dec-03 06:28N 32°08' W 081°09'0 0.0
2016-Dec-03 05:28N 32°08' W 081°09'0 0.0
2016-Dec-03 04:28N 32°08' W 081°09'0 0.0
2016-Dec-03 03:28N 32°08' W 081°09'0 0.0
2016-Dec-03 02:10N 32°08' W 081°09'0 0.0
2016-Dec-03 01:28N 32°08' W 081°09'0 0.0
2016-Dec-03 00:28N 32°08' W 081°09'0 0.0
2016-Dec-02 23:22N 32°08' W 081°09'0 0.2
2016-Dec-02 22:33N 32°08' W 081°08'4 4.2
2016-Dec-02 21:33N 32°05' W 081°05'7 6.9
2016-Dec-02 20:33N 32°04' W 080°57'1010.2
2016-Dec-02 19:33N 31°59' W 080°46'1110.6
2016-Dec-02 18:34N 31°57' W 080°34'10 9.8
2016-Dec-02 17:34N 31°58' W 080°23'10 9.8
2016-Dec-02 16:32N 31°60' W 080°11'23117.3
2016-Dec-02 03:12N 34°11' W 076°24'1319.9
2016-Dec-02 02:34N 34°19' W 076°12'2019.9
2016-Dec-02 01:33N 34°32' W 075°54'29619.7
2016-Dec-01 10:32N 39°13' W 073°58'1919.9
2016-Dec-01 09:33N 39°32' W 073°54'1919.3
2016-Dec-01 08:33N 39°51' W 073°51'2115.1
2016-Dec-01 07:10N 40°12' W 073°50'6 9.5
2016-Dec-01 06:33N 40°18' W 073°49'9 8.8
2016-Dec-01 05:33N 40°27' W 073°48'10 9.9
2016-Dec-01 04:33N 40°31' W 073°60'9 8.9
2016-Dec-01 03:34N 40°40' W 074°03'1 0.7
2016-Dec-01 01:33N 40°40' W 074°05'0 0.0
2016-Dec-01 00:33N 40°40' W 074°05'0 0.0
2016-Nov-30 23:33N 40°40' W 074°05'0 0.0
2016-Nov-30 22:33N 40°40' W 074°05'0 0.0
2016-Nov-30 21:33N 40°40' W 074°05'0 0.0
2016-Nov-30 20:33N 40°40' W 074°05'0 0.0
2016-Nov-30 19:33N 40°40' W 074°05'0 0.0
2016-Nov-30 18:33N 40°40' W 074°05'0 0.0
2016-Nov-30 17:33N 40°40' W 074°05'0 0.0
2016-Nov-30 16:33N 40°40' W 074°05'0 0.0
2016-Nov-30 15:33N 40°40' W 074°05'0 0.0
2016-Nov-30 14:33N 40°40' W 074°05'0 0.0
2016-Nov-30 13:33N 40°40' W 074°05'0 0.0
2016-Nov-30 12:33N 40°40' W 074°05'0 0.0
2016-Nov-30 11:33N 40°40' W 074°05'0 0.0
2016-Nov-30 10:33N 40°40' W 074°05'0 0.0
2016-Nov-30 09:31N 40°40' W 074°05'0 0.0
2016-Nov-30 08:31N 40°40' W 074°05'0 0.0
2016-Nov-30 07:31N 40°40' W 074°05'0 0.0
2016-Nov-30 06:31N 40°40' W 074°05'0 0.0
2016-Nov-30 05:31N 40°40' W 074°05'0 0.0
2016-Nov-30 04:31N 40°40' W 074°05'0 0.0
2016-Nov-30 03:31N 40°40' W 074°05'0 0.0
2016-Nov-30 02:31N 40°40' W 074°05'0 0.0
2016-Nov-30 01:31N 40°40' W 074°05'0 0.0
2016-Nov-30 00:31N 40°40' W 074°05'0 0.0
2016-Nov-29 23:31N 40°40' W 074°05'0 0.0
2016-Nov-29 22:31N 40°40' W 074°05'0 0.0
2016-Nov-29 21:31N 40°40' W 074°05'0 0.0
2016-Nov-29 20:31N 40°40' W 074°05'0 0.0
2016-Nov-29 19:31N 40°40' W 074°05'0 0.0
2016-Nov-29 18:31N 40°40' W 074°05'0 0.0
2016-Nov-29 17:31N 40°40' W 074°05'0 0.0
2016-Nov-29 16:31N 40°40' W 074°05'0 0.0
2016-Nov-29 15:31N 40°40' W 074°05'0 0.0
2016-Nov-29 14:31N 40°40' W 074°05'0 0.0
2016-Nov-29 13:31N 40°40' W 074°05'0 0.0
2016-Nov-29 12:31N 40°40' W 074°05'0 0.0
2016-Nov-29 11:31N 40°40' W 074°05'4 3.7
2016-Nov-29 10:33N 40°37' W 074°03'1211.5
2016-Nov-29 09:33N 40°28' W 073°53'9 8.9
2016-Nov-29 08:33N 40°27' W 073°41'9 8.4
2016-Nov-29 07:32N 40°28' W 073°30'11 9.8
2016-Nov-29 06:23N 40°29' W 073°15'20 9.9
2016-Nov-29 04:25N 40°30' W 072°49'9 9.9
2016-Nov-29 03:30N 40°30' W 072°37'  

Dump ship's entire track history